createdAt,value
2023-02-02T00:02:06.754Z,63.64
2023-02-02T00:04:39.066Z,63.92
2023-02-02T00:07:12.189Z,64.03
2023-02-02T00:09:42.337Z,63.94
2023-02-02T00:12:13.125Z,63.36
2023-02-02T00:14:43.455Z,63.77
2023-02-02T00:17:14.524Z,63.69
2023-02-02T00:19:47.110Z,64.05
2023-02-02T00:22:20.301Z,63.68
2023-02-02T00:24:50.598Z,64.25
2023-02-02T00:27:20.484Z,64.25
2023-02-02T00:29:53.747Z,64.62
2023-02-02T00:32:24.266Z,65.37
2023-02-02T00:34:54.742Z,64.90
2023-02-02T00:37:27.311Z,64.73
2023-02-02T00:39:57.126Z,64.85
2023-02-02T00:42:27.335Z,65.62
2023-02-02T00:45:10.028Z,66.44
2023-02-02T00:47:40.138Z,66.22
2023-02-02T00:50:11.313Z,66.01
2023-02-02T00:52:45.394Z,66.23
2023-02-02T00:55:16.318Z,66.94
2023-02-02T00:57:46.236Z,68.02
2023-02-02T01:00:19.403Z,68.09
2023-02-02T01:02:50.432Z,67.78
2023-02-02T01:05:21.660Z,67.30
2023-02-02T01:07:54.526Z,67.30
2023-02-02T01:10:24.983Z,67.76
2023-02-02T01:12:54.994Z,68.10
2023-02-02T01:15:25.833Z,67.81
2023-02-02T01:17:56.206Z,68.63
2023-02-02T01:20:26.687Z,68.55
2023-02-02T01:22:59.615Z,68.09
2023-02-02T01:25:30.593Z,67.99
2023-02-02T01:28:00.600Z,68.52
2023-02-02T01:30:31.461Z,68.12
2023-02-02T01:33:01.412Z,67.77
2023-02-02T01:35:31.469Z,68.00
2023-02-02T01:38:04.260Z,67.95
2023-02-02T01:40:34.355Z,67.05
2023-02-02T01:43:04.275Z,67.02
2023-02-02T01:45:34.253Z,66.92
2023-02-02T01:48:05.368Z,67.30
2023-02-02T01:50:38.751Z,67.24
2023-02-02T01:53:13.190Z,67.67
2023-02-02T01:55:45.541Z,68.18
2023-02-02T01:58:21.471Z,67.99
2023-02-02T02:00:51.519Z,68.39
2023-02-02T02:09:14.369Z,68.19
2023-02-02T02:11:44.260Z,68.36
2023-02-02T02:14:30.730Z,68.15
2023-02-02T02:17:15.999Z,68.02
2023-02-02T02:20:40.011Z,67.47
2023-02-02T02:24:01.844Z,68.52
2023-02-02T02:27:00.769Z,68.87
2023-02-02T02:30:01.748Z,68.39
2023-02-02T02:32:44.236Z,68.06
2023-02-02T02:35:27.590Z,68.41
2023-02-02T02:38:07.640Z,68.09
2023-02-02T02:40:43.395Z,67.68
2023-02-02T02:43:19.687Z,67.20
2023-02-02T02:45:51.146Z,68.03
2023-02-02T02:48:23.782Z,67.61
2023-02-02T02:50:53.742Z,67.85
2023-02-02T02:53:26.427Z,68.34
2023-02-02T02:56:08.013Z,68.19
2023-02-02T02:58:49.190Z,67.76
2023-02-02T03:01:29.742Z,68.00
2023-02-02T03:04:13.608Z,67.70
2023-02-02T03:06:51.310Z,67.65
2023-02-02T03:09:29.516Z,67.26
2023-02-02T03:12:00.346Z,67.92
2023-02-02T03:14:30.419Z,68.11
2023-02-02T03:17:00.267Z,67.71
2023-02-02T03:19:33.213Z,67.77
2023-02-02T03:22:03.348Z,67.35
2023-02-02T03:24:33.608Z,69.07
2023-02-02T03:27:04.236Z,70.95
2023-02-02T03:29:34.331Z,72.21
2023-02-02T03:32:04.483Z,72.81
2023-02-02T03:34:37.242Z,72.08
2023-02-02T03:37:07.132Z,71.98
2023-02-02T03:39:39.529Z,71.77
2023-02-02T03:42:09.443Z,71.75
2023-02-02T03:44:39.682Z,70.84
2023-02-02T03:47:09.800Z,71.19
2023-02-02T03:49:42.232Z,70.74
2023-02-02T03:52:13.729Z,70.83
2023-02-02T03:54:43.851Z,71.38
2023-02-02T03:57:14.427Z,70.66
2023-02-02T03:59:44.265Z,71.24
2023-02-02T04:02:14.310Z,71.09
2023-02-02T04:04:46.866Z,70.69
2023-02-02T04:07:18.195Z,70.74
2023-02-02T04:09:48.016Z,70.81
2023-02-02T04:12:17.852Z,70.12
2023-02-02T04:14:47.799Z,69.45
2023-02-02T04:17:17.605Z,69.72
2023-02-02T04:19:53.239Z,70.06
2023-02-02T04:22:23.091Z,69.14
2023-02-02T04:24:52.933Z,69.70
2023-02-02T04:27:22.824Z,69.56
2023-02-02T04:29:52.949Z,70.10
2023-02-02T04:32:23.457Z,70.11
2023-02-02T04:34:55.984Z,70.39
2023-02-02T04:37:25.867Z,69.77
2023-02-02T04:39:55.794Z,70.25
2023-02-02T04:42:25.696Z,69.83
2023-02-02T04:44:55.488Z,70.32
2023-02-02T04:47:25.360Z,69.58
2023-02-02T04:49:57.971Z,69.44
2023-02-02T04:52:27.985Z,68.70
2023-02-02T04:54:57.874Z,68.48
2023-02-02T04:57:27.804Z,69.03
2023-02-02T04:59:57.668Z,68.55
2023-02-02T05:02:27.823Z,68.80
2023-02-02T05:05:00.222Z,69.14
2023-02-02T05:07:30.173Z,69.19
2023-02-02T05:09:59.969Z,69.66
2023-02-02T05:12:30.112Z,68.45
2023-02-02T05:15:01.205Z,68.79
2023-02-02T05:17:31.041Z,69.46
2023-02-02T05:20:03.644Z,69.09
2023-02-02T05:22:35.278Z,69.85
2023-02-02T05:25:05.335Z,69.09
2023-02-02T05:27:36.678Z,67.97
2023-02-02T05:30:07.411Z,68.24
2023-02-02T05:32:37.399Z,68.64
2023-02-02T05:35:12.211Z,68.94
2023-02-02T05:37:42.133Z,69.29
2023-02-02T05:40:13.508Z,69.96
2023-02-02T05:42:43.526Z,70.58
2023-02-02T05:45:14.363Z,71.24
2023-02-02T05:47:44.245Z,71.89
2023-02-02T05:50:16.803Z,72.03
2023-02-02T05:52:49.587Z,72.04
2023-02-02T05:55:20.241Z,71.83
2023-02-02T05:57:50.146Z,71.98
2023-02-02T06:00:21.115Z,72.18
2023-02-02T06:02:50.928Z,71.99
2023-02-02T06:05:25.252Z,72.25
2023-02-02T06:07:55.297Z,72.58
2023-02-02T06:10:25.410Z,72.46
2023-02-02T06:12:55.471Z,72.95
2023-02-02T06:15:27.937Z,73.05
2023-02-02T06:17:58.846Z,73.55
2023-02-02T06:20:32.360Z,73.34
2023-02-02T06:23:04.314Z,73.53
2023-02-02T06:25:34.426Z,73.35
2023-02-02T06:28:04.574Z,73.54
2023-02-02T06:30:34.649Z,74.11
2023-02-02T06:33:04.563Z,74.14
2023-02-02T06:35:37.177Z,74.41
2023-02-02T06:38:09.767Z,74.09
2023-02-02T06:40:39.786Z,74.15
2023-02-02T06:43:09.589Z,74.04
2023-02-02T06:45:40.448Z,74.24
2023-02-02T06:48:11.320Z,74.24
2023-02-02T06:50:43.789Z,74.75
2023-02-02T06:53:13.758Z,74.97
2023-02-02T06:55:44.098Z,75.14
2023-02-02T06:58:14.011Z,74.85
2023-02-02T07:00:43.975Z,75.84
2023-02-02T07:03:13.811Z,74.72
2023-02-02T07:05:46.318Z,74.61
2023-02-02T07:08:16.502Z,74.52
2023-02-02T07:11:12.943Z,74.86
2023-02-02T07:13:36.365Z,74.95
2023-02-02T07:16:10.007Z,74.56
2023-02-02T07:18:40.021Z,74.98
2023-02-02T07:21:18.486Z,74.97
2023-02-02T07:23:48.840Z,74.93
2023-02-02T07:26:20.922Z,74.53
2023-02-02T07:28:50.945Z,75.31
2023-02-02T07:31:23.245Z,75.85
2023-02-02T07:33:53.962Z,75.71
2023-02-02T07:36:27.968Z,75.40
2023-02-02T07:38:58.047Z,75.38
2023-02-02T07:41:28.509Z,75.14
2023-02-02T07:43:58.625Z,75.24
2023-02-02T07:46:28.935Z,75.20
2023-02-02T07:49:00.035Z,75.75
2023-02-02T07:51:32.546Z,75.89
2023-02-02T07:54:02.681Z,76.21
2023-02-02T07:56:32.588Z,76.74
2023-02-02T07:59:02.648Z,76.98
2023-02-02T08:01:32.698Z,77.54
2023-02-02T08:04:03.532Z,77.51
2023-02-02T08:06:39.486Z,77.60
2023-02-02T08:09:11.667Z,77.59
2023-02-02T08:11:42.059Z,77.17
2023-02-02T08:14:16.028Z,77.76
2023-02-02T08:16:46.081Z,77.75
2023-02-02T08:19:16.120Z,77.51
2023-02-02T08:21:48.606Z,78.32
2023-02-02T08:24:18.510Z,77.97
2023-02-02T08:26:48.465Z,78.17
2023-02-02T08:29:19.407Z,78.10
2023-02-02T08:31:49.400Z,78.25
2023-02-02T08:34:19.195Z,78.44
2023-02-02T08:36:51.871Z,79.26
2023-02-02T08:39:21.795Z,79.54
2023-02-02T08:41:51.692Z,79.40
2023-02-02T08:44:21.579Z,79.64
2023-02-02T08:46:53.552Z,79.72
2023-02-02T08:49:23.738Z,79.75
2023-02-02T08:51:56.213Z,79.87
2023-02-02T08:54:26.301Z,79.78
2023-02-02T08:56:56.105Z,80.05
2023-02-02T08:59:26.005Z,79.54
2023-02-02T09:01:56.748Z,79.59
2023-02-02T09:04:26.702Z,80.24
2023-02-02T09:06:59.473Z,79.59
2023-02-02T09:09:29.624Z,79.52
2023-02-02T09:11:59.555Z,79.73
2023-02-02T09:14:30.099Z,80.03
2023-02-02T09:17:00.197Z,79.83
2023-02-02T09:19:30.247Z,80.00
2023-02-02T09:22:05.585Z,80.16
2023-02-02T09:24:35.687Z,80.44
2023-02-02T09:27:05.461Z,80.81
2023-02-02T09:29:35.518Z,80.64
2023-02-02T09:32:05.481Z,80.95
2023-02-02T09:34:36.139Z,80.89
2023-02-02T09:37:08.581Z,81.56
2023-02-02T09:39:38.579Z,81.36
2023-02-02T09:42:32.120Z,81.35
2023-02-02T09:45:07.329Z,81.57
2023-02-02T09:47:55.934Z,82.25
2023-02-02T09:50:40.094Z,82.41
2023-02-02T09:53:23.126Z,82.42
2023-02-02T09:55:57.599Z,82.40
2023-02-02T09:58:34.224Z,82.75
2023-02-02T10:01:10.590Z,82.20
2023-02-02T10:03:48.480Z,82.40
2023-02-02T10:06:31.440Z,81.52
2023-02-02T10:09:19.699Z,81.64
2023-02-02T10:11:56.156Z,80.32
2023-02-02T10:14:32.572Z,81.51
2023-02-02T10:17:13.005Z,80.52
2023-02-02T10:19:45.354Z,80.33
2023-02-02T10:22:22.471Z,80.04
2023-02-02T10:24:55.150Z,79.94
2023-02-02T10:27:39.421Z,79.74
2023-02-02T10:30:21.153Z,80.24
2023-02-02T10:33:01.556Z,79.99
2023-02-02T10:35:41.584Z,79.92
2023-02-02T10:38:23.407Z,79.49
2023-02-02T10:41:09.629Z,79.58
2023-02-02T10:44:03.878Z,79.23
2023-02-02T10:46:40.216Z,79.62
2023-02-02T10:49:25.906Z,79.01
2023-02-02T10:52:05.086Z,78.73
2023-02-02T10:54:57.214Z,78.42
2023-02-02T10:57:45.599Z,78.89
2023-02-02T11:00:25.527Z,77.68
2023-02-02T11:02:56.398Z,77.80
2023-02-02T11:05:42.700Z,76.96
2023-02-02T11:08:18.157Z,76.91
2023-02-02T11:10:49.500Z,76.66
2023-02-02T11:13:31.697Z,77.19
2023-02-02T11:16:24.645Z,77.70
2023-02-02T11:18:54.693Z,77.59
2023-02-02T11:21:28.065Z,76.82
2023-02-02T11:24:02.550Z,76.73
2023-02-02T11:26:48.342Z,76.61
2023-02-02T11:29:28.984Z,77.08
2023-02-02T11:31:58.972Z,77.70
2023-02-02T11:34:30.881Z,77.72
2023-02-02T11:37:03.817Z,77.42
2023-02-02T11:39:33.672Z,77.64
2023-02-02T11:42:05.234Z,77.62
2023-02-02T11:44:42.464Z,77.90
2023-02-02T11:47:23.309Z,77.98
2023-02-02T11:49:55.575Z,78.24
2023-02-02T11:52:32.694Z,78.18
2023-02-02T11:55:11.985Z,78.26
2023-02-02T11:57:41.761Z,78.72
2023-02-02T12:00:27.521Z,79.35
2023-02-02T12:02:58.278Z,79.41
2023-02-02T12:05:38.017Z,80.01
2023-02-02T12:08:10.212Z,79.83
2023-02-02T12:10:50.984Z,79.90
2023-02-02T12:13:39.735Z,80.42
2023-02-02T12:16:34.328Z,81.11
2023-02-02T12:19:28.139Z,81.27
2023-02-02T12:22:11.553Z,81.92
2023-02-02T12:24:55.449Z,81.58
2023-02-02T12:27:40.208Z,81.84
2023-02-02T12:30:30.395Z,82.33
2023-02-02T12:33:25.366Z,82.82
2023-02-02T12:36:13.014Z,82.58
2023-02-02T12:39:11.449Z,83.15
2023-02-02T12:42:04.467Z,83.01
2023-02-02T12:44:51.195Z,84.03
2023-02-02T12:47:30.122Z,83.56
2023-02-02T12:50:26.237Z,83.90
2023-02-02T12:53:17.285Z,84.27
2023-02-02T12:56:00.240Z,84.79
2023-02-02T12:58:41.779Z,84.87
2023-02-02T13:01:46.036Z,85.13
2023-02-02T13:04:43.465Z,85.27
2023-02-02T13:07:30.275Z,85.42
2023-02-02T13:10:19.601Z,85.77
2023-02-02T13:12:56.913Z,86.41
2023-02-02T13:15:36.672Z,86.29
2023-02-02T13:18:14.548Z,85.94
2023-02-02T13:20:50.405Z,86.23
2023-02-02T13:23:27.831Z,86.44
2023-02-02T13:26:04.320Z,86.44
2023-02-02T13:28:46.244Z,86.86
2023-02-02T13:31:23.476Z,87.35
2023-02-02T13:34:06.264Z,87.15
2023-02-02T13:36:39.555Z,86.94
2023-02-02T13:39:23.227Z,87.71
2023-02-02T13:41:55.931Z,87.27
2023-02-02T13:44:34.562Z,87.97
2023-02-02T13:47:14.201Z,87.86
2023-02-02T13:49:51.261Z,87.94
2023-02-02T13:52:44.393Z,87.98
2023-02-02T13:55:43.796Z,88.11
2023-02-02T13:58:50.759Z,88.21
2023-02-02T14:01:23.469Z,88.71
2023-02-02T14:03:58.155Z,88.48
2023-02-02T14:06:31.293Z,88.42
2023-02-02T14:09:05.604Z,88.43
2023-02-02T14:11:43.375Z,88.66
2023-02-02T14:14:32.569Z,88.16
2023-02-02T14:17:04.034Z,88.11
2023-02-02T14:19:56.638Z,87.39
2023-02-02T14:22:43.871Z,88.08
2023-02-02T14:25:43.981Z,87.49
2023-02-02T14:28:47.457Z,87.09
2023-02-02T14:31:32.459Z,86.93
2023-02-02T14:34:17.836Z,87.25
2023-02-02T14:37:15.866Z,86.79
2023-02-02T14:40:00.972Z,85.71
2023-02-02T14:43:02.906Z,86.06
2023-02-02T14:45:39.179Z,87.13
2023-02-02T14:48:16.806Z,86.31
2023-02-02T14:50:52.645Z,86.00
2023-02-02T14:53:29.156Z,86.38
2023-02-02T14:56:04.310Z,86.91
2023-02-02T14:58:37.569Z,85.89
2023-02-02T15:01:16.526Z,86.08
2023-02-02T15:03:53.837Z,85.56
2023-02-02T15:06:34.050Z,84.47
2023-02-02T15:09:33.955Z,84.71
2023-02-02T15:12:37.935Z,83.98
2023-02-02T15:15:22.538Z,85.09
2023-02-02T15:18:07.950Z,84.48
2023-02-02T15:20:45.741Z,85.37
2023-02-02T15:23:31.878Z,84.33
2023-02-02T15:26:10.154Z,84.54
2023-02-02T15:28:46.411Z,83.93
2023-02-02T15:31:25.656Z,84.56
2023-02-02T15:34:02.844Z,84.85
2023-02-02T15:36:38.130Z,84.22
2023-02-02T15:39:19.642Z,84.56
2023-02-02T15:42:13.489Z,85.62
2023-02-02T15:44:45.612Z,86.15
2023-02-02T15:47:19.710Z,86.88
2023-02-02T15:49:52.165Z,87.54
2023-02-02T15:52:28.342Z,87.49
2023-02-02T15:55:01.251Z,87.73
2023-02-02T15:57:34.611Z,87.67
2023-02-02T16:00:27.145Z,87.94
2023-02-02T16:03:05.279Z,87.88
2023-02-02T16:05:52.423Z,88.58
2023-02-02T16:08:27.624Z,85.84
2023-02-02T16:11:07.745Z,85.81
2023-02-02T16:13:38.167Z,84.95
2023-02-02T16:16:12.961Z,85.62
2023-02-02T16:18:42.983Z,84.72
2023-02-02T16:21:28.754Z,83.50
2023-02-02T16:24:01.263Z,83.12
2023-02-02T16:26:35.698Z,82.63
2023-02-02T16:29:06.400Z,82.23
2023-02-02T16:31:38.564Z,82.96
2023-02-02T16:34:08.627Z,84.01
2023-02-02T16:36:41.214Z,84.16
2023-02-02T16:39:19.328Z,83.20
2023-02-02T16:41:50.808Z,83.52
2023-02-02T16:44:42.922Z,83.66
2023-02-02T16:47:37.817Z,84.82
2023-02-02T16:50:28.700Z,85.94
2023-02-02T16:53:05.457Z,86.05
2023-02-02T16:55:49.793Z,86.30
2023-02-02T16:58:24.370Z,86.86
2023-02-02T17:01:13.936Z,87.20
2023-02-02T17:03:53.499Z,87.35
2023-02-02T17:06:45.802Z,87.84
2023-02-02T17:09:34.861Z,87.75
2023-02-02T17:12:16.779Z,88.43
2023-02-02T17:14:56.930Z,88.24
2023-02-02T17:17:26.871Z,87.14
2023-02-02T17:19:57.273Z,87.12
2023-02-02T17:22:30.374Z,87.37
2023-02-02T17:25:03.234Z,87.79
2023-02-02T17:27:39.650Z,87.24
2023-02-02T17:30:13.317Z,87.37
2023-02-02T17:32:43.172Z,87.24
2023-02-02T17:35:17.429Z,87.41
2023-02-02T17:37:47.548Z,87.23
2023-02-02T17:40:21.851Z,87.06
2023-02-02T17:42:54.269Z,87.41
2023-02-02T17:45:33.620Z,87.18
2023-02-02T17:48:04.785Z,87.52
2023-02-02T17:50:36.641Z,87.41
2023-02-02T17:53:06.567Z,87.86
2023-02-02T17:55:42.050Z,87.88
2023-02-02T17:58:13.308Z,87.16
2023-02-02T18:00:44.849Z,87.43
2023-02-02T18:03:18.482Z,87.88
2023-02-02T18:05:48.554Z,87.83
2023-02-02T18:08:19.182Z,87.82
2023-02-02T18:10:52.228Z,87.81
2023-02-02T18:13:24.601Z,87.61
2023-02-02T18:15:59.944Z,88.20
2023-02-02T18:18:30.101Z,88.61
2023-02-02T18:20:59.954Z,89.05
2023-02-02T18:23:29.972Z,88.65
2023-02-02T18:26:11.783Z,88.54
2023-02-02T18:28:41.824Z,89.36
2023-02-02T18:31:13.653Z,88.97
2023-02-02T18:33:44.133Z,89.29
2023-02-02T18:36:17.865Z,89.11
2023-02-02T18:38:49.280Z,89.75
2023-02-02T18:41:22.938Z,89.87
2023-02-02T18:43:52.928Z,89.79
2023-02-02T18:46:22.806Z,90.02
2023-02-02T18:48:52.753Z,90.41
2023-02-02T18:51:22.607Z,90.46
2023-02-02T18:53:52.474Z,90.30
2023-02-02T18:56:24.899Z,90.64
2023-02-02T18:58:54.718Z,90.48
2023-02-02T19:01:26.299Z,90.69
2023-02-02T19:03:58.401Z,91.10
2023-02-02T19:06:41.356Z,91.13
2023-02-02T19:09:13.714Z,91.39
2023-02-02T19:11:48.653Z,91.20
2023-02-02T19:14:24.416Z,91.30
2023-02-02T19:16:54.719Z,87.27
2023-02-02T19:19:29.299Z,85.75
2023-02-02T19:22:01.312Z,81.98
2023-02-02T19:24:40.282Z,79.14
2023-02-02T19:27:20.139Z,76.70
2023-02-02T19:29:53.816Z,77.27
2023-02-02T19:32:27.029Z,77.33
2023-02-02T19:35:01.560Z,78.86
2023-02-02T19:37:35.094Z,82.38
2023-02-02T19:40:19.923Z,84.60
2023-02-02T19:42:57.872Z,86.33
2023-02-02T19:45:32.836Z,86.93
2023-02-02T19:48:09.479Z,87.18
2023-02-02T19:50:41.916Z,87.54
2023-02-02T19:53:21.389Z,88.49
2023-02-02T19:55:52.166Z,88.62
2023-02-02T19:58:28.291Z,88.95
2023-02-02T20:00:59.938Z,89.19
2023-02-02T20:03:42.964Z,89.66
2023-02-02T20:06:19.584Z,89.36
2023-02-02T20:08:49.565Z,90.30
2023-02-02T20:11:32.377Z,90.30
2023-02-02T20:14:32.330Z,90.77
2023-02-02T20:17:07.860Z,91.04
2023-02-02T20:19:43.975Z,91.10
2023-02-02T20:22:26.909Z,91.15
2023-02-02T20:24:58.753Z,91.35
2023-02-02T20:27:34.434Z,91.40
2023-02-02T20:30:25.249Z,91.29
2023-02-02T20:32:59.041Z,91.54
2023-02-02T20:35:38.740Z,91.88
2023-02-02T20:38:21.037Z,91.50
2023-02-02T20:40:51.472Z,91.20
2023-02-02T20:43:21.364Z,91.66
2023-02-02T20:45:53.879Z,91.88
2023-02-02T20:48:25.727Z,91.88
2023-02-02T20:50:55.665Z,92.11
2023-02-02T20:53:25.578Z,92.29
2023-02-02T20:55:58.311Z,92.24
2023-02-02T20:58:28.336Z,92.08
2023-02-02T21:01:05.419Z,92.53
2023-02-02T21:03:35.743Z,92.19
2023-02-02T21:06:05.659Z,92.23
2023-02-02T21:08:35.638Z,92.14
2023-02-02T21:11:05.488Z,92.65
2023-02-02T21:13:35.329Z,92.63
2023-02-02T21:16:09.868Z,92.72
2023-02-02T21:18:39.675Z,92.91
2023-02-02T21:21:09.696Z,92.34
2023-02-02T21:23:39.558Z,92.93
2023-02-02T21:26:09.352Z,93.07
2023-02-02T21:28:39.595Z,92.57
2023-02-02T21:31:14.670Z,92.73
2023-02-02T21:33:45.168Z,92.46
2023-02-02T21:36:32.222Z,91.82
2023-02-02T21:39:09.022Z,92.51
2023-02-02T21:41:40.159Z,92.65
2023-02-02T21:44:16.318Z,92.26
2023-02-02T21:46:51.696Z,92.28
2023-02-02T21:49:26.114Z,91.83
2023-02-02T21:52:00.110Z,91.69
2023-02-02T21:54:32.249Z,91.83
2023-02-02T21:57:06.265Z,91.49
2023-02-02T21:59:39.350Z,90.96
2023-02-02T22:02:40.496Z,90.60
2023-02-02T22:05:21.611Z,90.45
2023-02-02T22:07:53.529Z,90.61
2023-02-02T22:10:39.538Z,90.77
2023-02-02T22:13:19.839Z,90.34
2023-02-02T22:15:52.320Z,90.49
2023-02-02T22:18:26.365Z,90.55
2023-02-02T22:20:57.782Z,90.68
2023-02-02T22:23:30.968Z,90.18
2023-02-02T22:26:01.475Z,90.08
2023-02-02T22:28:39.898Z,89.63
2023-02-02T22:31:09.895Z,89.74
2023-02-02T22:33:42.311Z,88.87
2023-02-02T22:36:12.218Z,88.61
2023-02-02T22:38:42.027Z,88.20
2023-02-02T22:41:11.878Z,88.61
2023-02-02T22:43:41.719Z,88.39
2023-02-02T22:46:11.613Z,88.21
2023-02-02T22:48:44.031Z,87.56
2023-02-02T22:51:13.884Z,87.64
2023-02-02T22:53:43.728Z,87.48
2023-02-02T22:56:13.498Z,88.09
2023-02-02T22:58:43.285Z,87.27
2023-02-02T23:01:13.774Z,87.67
2023-02-02T23:03:47.651Z,87.36
2023-02-02T23:06:17.509Z,87.72
2023-02-02T23:08:47.276Z,87.29
2023-02-02T23:11:17.156Z,87.57
2023-02-02T23:13:46.959Z,87.70
2023-02-02T23:16:16.814Z,87.45
2023-02-02T23:18:49.304Z,87.55
2023-02-02T23:21:19.223Z,87.15
2023-02-02T23:23:49.580Z,87.34
2023-02-02T23:26:19.464Z,87.05
2023-02-02T23:28:49.268Z,87.66
2023-02-02T23:31:19.294Z,87.10
2023-02-02T23:33:51.741Z,86.97
2023-02-02T23:36:21.544Z,86.58
2023-02-02T23:38:51.306Z,86.30
2023-02-02T23:41:21.136Z,85.63
2023-02-02T23:43:51.061Z,85.65
2023-02-02T23:46:21.255Z,85.76
2023-02-02T23:48:54.113Z,85.43
2023-02-02T23:51:24.254Z,85.16
2023-02-02T23:53:54.211Z,85.23
2023-02-02T23:56:24.430Z,84.90
2023-02-02T23:58:54.273Z,84.71
